Misión y Visión

La misión es proporcionar información fiable a la navegación aérea, contribuyendo a la seguridad, regularidad y eficiencia de la Navegación Aérea Internacional

La visión es contribuir sustancialmente al desarrollo de conocimientos y a la utilización de la meteorología aeronáutica a nivel nacional e internacional, mediante la innovación y la coparticipación con sectores sociales y productivos de la sociedad.

 
  Inicio
  Metar
  Taf
  Wintemp
  SIGMET
  Avisos
  Pronósticos
  Carpeta Meteorologica
  Imágenes Satelitales
  Climatología Aeronáutica
   
  ¿Quienes Somos?
  Contacto
  Eventos
  Publicaciones
  Politica de la Calidad



DIRECCIONES PARA INFORMES NACIONALES E INTERNACIONALES
(Metar /Speci - TAF)



http://adds.aviationweather.gov/tafs/index.php

http://www.ogimet.com/metars.phtml



PRONÓSTICOS DE AERÓDROMO

Cuando sea necesario, el encabezamiento abreviado puede incluir un cuarto grupo consistente en tres letras para identificar los boletines demorados (RRA), corregidos(CCA) o enmendados (AAA). Los boletines adicionales demorados, corregidos o enmendados deben identificarse con las letras RRB, RRC, etc.; CCB, CCC,etc.;AAB, AAC,etc.



ESTACIONES DESCRIPCION  
MPBO (M)011800Z 24006KT(E)8000 -RA SCT015 OVC080 Q1015 RWY WET  
MPCH (M)011800Z 28005KT 8000 RA FEW006 SCT020 OVC060 ///// Q1018 RWY WET  
MPSA (M)011800Z 03006KT 9999 FEW008 SCT018 BKN080 26/23 Q1012 RMK PCPN SE/W ST ALQDS  
MPCE (M)011800Z 00000KT 9999 FEW010 SCT015 BKN080 23/23 Q1010 REDZ RWY WET  
MPPN 012200Z 00000KT 9999 SCT020 BKN090  
MPSM 020200Z 32006KT 9999 FEW020 BKN100 27/24 Q1011  
MPJE 012100Z 00000KT 9999 SCT020 OVC070 Q1008  
MPPA (M)011800Z 21004KT 9999 SCT018 26/22 Q1012  
MPMG (M)011800Z 32006KT 9999 SCT018TCU BKN090 30/26 Q1012 NOSIG RMK TCU N/NE/E  
MPDA (M)011800Z 03006KT 9999 SCT018CB SCT090 OVC250 ///// Q1010 RMK CB N  
MPVR  
MPWN  
MPOA MPOA NIL  
MPMF MPMF 011900Z 00000KT 9999 SCT015 Q1013=  
MPTO 020600Z 25004KT 9999 FEW020 27/25 Q1011 NOSIG  
MPEJ MPEJ 011700Z 27007KT 9000 FEW016TCU BKN018 29/26 Q1012 RMK TCU E/NW HZ ALQDS=  

 

 

 

CLIMATICAS

MPTO

01-09-2015

PCPN

T° MAX

T° MIN

VIENTO MAX (KT)

HORA

VIENTO PREDOM (KT)

00.0

30.9

25.2

28010KT

2300Z

W/06KT

 

CLIMATICAS

MPMG

31 -08-2015

PCPN

T° MAX

T° MIN

VIENTO MAX (KT)

HORA

VIENTO PREDOM (KT)

3.9

32.7

24.9

06014KT

2100Z

NW

 

 
 























  Noticias AAC
  Directorio
  Contáctenos
  Historia
  Quejas y Sugerencias
  Etica y Transparencia

  Gestión SSP/SMS
  Seguridad Aérea
  Navegación Aérea
  Transporte Aéreo

  Tramites
  Áeronaves de Alquiler

  Meteorología
  I.S.F.P.A
  Notam
  Peligro Aviario
  AVSEC
  UPIA
  Permisos
 




DECLARACIÓN DE PRIVACIDAD